sensor_id;sensor_type;location;lat;lon;timestamp;pressure;altitude;pressure_sealevel;temperature;humidity
20350;BME280;10332;50.208;18.988;2023-05-08T00:00:36;98956.22;;;7.38;83.63
20350;BME280;10332;50.208;18.988;2023-05-08T00:03:16;98954.16;;;7.46;83.19
20350;BME280;10332;50.208;18.988;2023-05-08T00:05:43;98958.44;;;7.47;82.78
20350;BME280;10332;50.208;18.988;2023-05-08T00:08:11;98965.19;;;7.51;82.37
20350;BME280;10332;50.208;18.988;2023-05-08T00:10:38;98961.09;;;7.66;81.85
20350;BME280;10332;50.208;18.988;2023-05-08T00:13:06;98962.72;;;7.68;81.82
20350;BME280;10332;50.208;18.988;2023-05-08T00:15:35;98967.53;;;7.78;80.80
20350;BME280;10332;50.208;18.988;2023-05-08T00:18:02;98961.41;;;7.79;80.16
20350;BME280;10332;50.208;18.988;2023-05-08T00:20:30;98966.84;;;7.73;79.71
20350;BME280;10332;50.208;18.988;2023-05-08T00:22:57;98968.63;;;7.72;79.80
20350;BME280;10332;50.208;18.988;2023-05-08T00:25:26;98961.09;;;7.66;80.00
20350;BME280;10332;50.208;18.988;2023-05-08T00:27:54;98966.16;;;7.69;80.01
20350;BME280;10332;50.208;18.988;2023-05-08T00:30:21;98965.13;;;7.73;79.73
20350;BME280;10332;50.208;18.988;2023-05-08T00:32:49;98968.44;;;7.77;79.67
20350;BME280;10332;50.208;18.988;2023-05-08T00:35:17;98957.06;;;7.79;79.44
20350;BME280;10332;50.208;18.988;2023-05-08T00:37:44;98967.44;;;7.79;79.39
20350;BME280;10332;50.208;18.988;2023-05-08T00:40:12;98968.75;;;7.89;79.29
20350;BME280;10332;50.208;18.988;2023-05-08T00:42:40;98964.38;;;7.90;79.41
20350;BME280;10332;50.208;18.988;2023-05-08T00:45:08;98968.56;;;7.94;79.53
20350;BME280;10332;50.208;18.988;2023-05-08T00:47:36;98966.88;;;7.93;79.43
20350;BME280;10332;50.208;18.988;2023-05-08T00:50:05;98969.47;;;7.93;79.10
20350;BME280;10332;50.208;18.988;2023-05-08T00:52:33;98967.13;;;7.87;79.36
20350;BME280;10332;50.208;18.988;2023-05-08T00:55:04;98976.28;;;7.95;79.29
20350;BME280;10332;50.208;18.988;2023-05-08T00:57:33;98964.38;;;7.90;79.15
20350;BME280;10332;50.208;18.988;2023-05-08T01:00:03;98965.19;;;7.92;78.77
20350;BME280;10332;50.208;18.988;2023-05-08T01:02:32;98966.28;;;7.86;78.60
20350;BME280;10332;50.208;18.988;2023-05-08T01:05:01;98968.75;;;7.89;78.53
20350;BME280;10332;50.208;18.988;2023-05-08T01:07:29;98972.31;;;7.87;78.40
20350;BME280;10332;50.208;18.988;2023-05-08T01:09:57;98974.59;;;7.94;77.96
20350;BME280;10332;50.208;18.988;2023-05-08T01:12:58;98961.22;;;7.83;77.90
20350;BME280;10332;50.208;18.988;2023-05-08T01:15:40;98976.63;;;7.88;77.64
20350;BME280;10332;50.208;18.988;2023-05-08T01:18:28;98974.53;;;7.76;78.05
20350;BME280;10332;50.208;18.988;2023-05-08T01:32:35;98976.41;;;7.72;77.00
20350;BME280;10332;50.208;18.988;2023-05-08T01:35:29;98988.25;;;7.59;77.18
20350;BME280;10332;50.208;18.988;2023-05-08T01:38:33;98984.66;;;7.61;77.28
20350;BME280;10332;50.208;18.988;2023-05-08T01:41:15;98983.19;;;7.56;77.27
20350;BME280;10332;50.208;18.988;2023-05-08T01:44:01;98993.50;;;7.57;77.44
20350;BME280;10332;50.208;18.988;2023-05-08T01:46:32;98993.22;;;7.63;77.25
20350;BME280;10332;50.208;18.988;2023-05-08T01:49:29;98996.88;;;7.59;77.51
20350;BME280;10332;50.208;18.988;2023-05-08T01:52:15;98989.03;;;7.61;77.91
20350;BME280;10332;50.208;18.988;2023-05-08T01:54:56;98988.38;;;7.76;77.65
20350;BME280;10332;50.208;18.988;2023-05-08T01:57:29;98997.03;;;7.77;77.24
20350;BME280;10332;50.208;18.988;2023-05-08T02:00:02;98988.47;;;7.75;77.39
20350;BME280;10332;50.208;18.988;2023-05-08T02:02:31;98984.81;;;7.79;77.45
20350;BME280;10332;50.208;18.988;2023-05-08T02:05:03;98981.19;;;7.83;77.21
20350;BME280;10332;50.208;18.988;2023-05-08T02:07:34;98974.41;;;7.79;77.24
20350;BME280;10332;50.208;18.988;2023-05-08T02:10:05;98975.13;;;7.82;76.99
20350;BME280;10332;50.208;18.988;2023-05-08T02:12:35;98975.31;;;7.78;77.08
20350;BME280;10332;50.208;18.988;2023-05-08T02:15:06;98986.81;;;7.72;77.04
20350;BME280;10332;50.208;18.988;2023-05-08T02:17:38;98988.63;;;7.70;77.25
20350;BME280;10332;50.208;18.988;2023-05-08T02:20:08;98987.53;;;7.55;77.61
20350;BME280;10332;50.208;18.988;2023-05-08T02:22:48;99001.84;;;7.65;77.19
20350;BME280;10332;50.208;18.988;2023-05-08T02:25:17;98997.88;;;7.77;77.32
20350;BME280;10332;50.208;18.988;2023-05-08T02:27:49;99000.63;;;7.74;77.21
20350;BME280;10332;50.208;18.988;2023-05-08T02:30:21;98999.81;;;7.72;77.63
20350;BME280;10332;50.208;18.988;2023-05-08T02:32:52;98989.88;;;7.61;78.25
20350;BME280;10332;50.208;18.988;2023-05-08T02:35:22;98984.22;;;7.52;79.13
20350;BME280;10332;50.208;18.988;2023-05-08T02:37:55;98993.50;;;7.57;78.91
20350;BME280;10332;50.208;18.988;2023-05-08T02:40:26;98994.59;;;7.52;79.68
20350;BME280;10332;50.208;18.988;2023-05-08T02:42:55;98999.88;;;7.50;79.80
20350;BME280;10332;50.208;18.988;2023-05-08T02:45:28;98987.97;;;7.45;79.85
20350;BME280;10332;50.208;18.988;2023-05-08T02:48:17;98997.88;;;7.35;79.88
20350;BME280;10332;50.208;18.988;2023-05-08T02:53:37;98996.97;;;7.36;79.91
20350;BME280;10332;50.208;18.988;2023-05-08T02:56:13;99003.75;;;7.40;79.03
20350;BME280;10332;50.208;18.988;2023-05-08T02:58:56;98994.13;;;7.42;78.48
20350;BME280;10332;50.208;18.988;2023-05-08T03:01:41;99002.06;;;7.39;78.62
20350;BME280;10332;50.208;18.988;2023-05-08T03:04:21;99002.97;;;7.38;78.59
20350;BME280;10332;50.208;18.988;2023-05-08T03:06:54;99006.59;;;7.34;78.56
20350;BME280;10332;50.208;18.988;2023-05-08T03:09:35;99006.47;;;7.37;78.28
20350;BME280;10332;50.208;18.988;2023-05-08T03:12:13;98999.84;;;7.30;78.22
20350;BME280;10332;50.208;18.988;2023-05-08T03:14:58;99009.34;;;7.51;77.64
20350;BME280;10332;50.208;18.988;2023-05-08T03:17:29;99009.13;;;7.35;77.76
20350;BME280;10332;50.208;18.988;2023-05-08T03:20:04;99008.00;;;7.21;78.11
20350;BME280;10332;50.208;18.988;2023-05-08T03:22:36;99017.72;;;7.37;77.81
20350;BME280;10332;50.208;18.988;2023-05-08T03:25:07;99016.13;;;7.33;77.91
20350;BME280;10332;50.208;18.988;2023-05-08T03:27:37;99016.38;;;7.49;77.58
20350;BME280;10332;50.208;18.988;2023-05-08T03:30:07;99012.78;;;7.52;76.56
20350;BME280;10332;50.208;18.988;2023-05-08T03:32:36;99020.13;;;7.42;76.58
20350;BME280;10332;50.208;18.988;2023-05-08T03:35:07;99019.72;;;7.31;76.60
20350;BME280;10332;50.208;18.988;2023-05-08T03:37:35;99017.34;;;7.47;76.24
20350;BME280;10332;50.208;18.988;2023-05-08T03:40:06;99020.59;;;7.52;75.88
20350;BME280;10332;50.208;18.988;2023-05-08T03:42:36;99018.06;;;7.50;75.97
20350;BME280;10332;50.208;18.988;2023-05-08T03:45:07;99022.09;;;7.35;76.74
20350;BME280;10332;50.208;18.988;2023-05-08T03:47:36;99017.13;;;7.51;76.22
20350;BME280;10332;50.208;18.988;2023-05-08T03:50:07;99014.94;;;7.62;75.55
20350;BME280;10332;50.208;18.988;2023-05-08T03:52:34;99017.81;;;7.56;75.52
20350;BME280;10332;50.208;18.988;2023-05-08T03:55:02;99022.81;;;7.61;75.49
20350;BME280;10332;50.208;18.988;2023-05-08T03:57:40;99028.00;;;7.61;75.45
20350;BME280;10332;50.208;18.988;2023-05-08T04:00:23;99028.41;;;7.72;74.75
20350;BME280;10332;50.208;18.988;2023-05-08T04:03:26;99025.88;;;7.71;74.75
20350;BME280;10332;50.208;18.988;2023-05-08T04:06:16;99027.16;;;7.81;74.70
20350;BME280;10332;50.208;18.988;2023-05-08T04:09:01;99017.56;;;7.83;73.76
20350;BME280;10332;50.208;18.988;2023-05-08T04:11:37;99023.69;;;7.82;74.38
20350;BME280;10332;50.208;18.988;2023-05-08T04:14:12;99025.31;;;7.84;73.98
20350;BME280;10332;50.208;18.988;2023-05-08T04:16:50;99028.81;;;8.04;73.43
20350;BME280;10332;50.208;18.988;2023-05-08T04:19:23;99028.81;;;8.04;73.18
20350;BME280;10332;50.208;18.988;2023-05-08T04:21:58;99042.78;;;8.21;72.42
20350;BME280;10332;50.208;18.988;2023-05-08T04:24:29;99039.66;;;8.13;72.56
20350;BME280;10332;50.208;18.988;2023-05-08T04:27:00;99039.91;;;8.07;72.65
20350;BME280;10332;50.208;18.988;2023-05-08T04:29:29;99040.66;;;8.11;72.88
20350;BME280;10332;50.208;18.988;2023-05-08T04:31:59;99048.13;;;8.18;72.53
20350;BME280;10332;50.208;18.988;2023-05-08T04:34:28;99054.88;;;8.02;72.84
20350;BME280;10332;50.208;18.988;2023-05-08T04:36:56;99057.84;;;8.34;72.00
20350;BME280;10332;50.208;18.988;2023-05-08T04:39:23;99055.78;;;8.21;72.33
20350;BME280;10332;50.208;18.988;2023-05-08T04:41:51;99069.72;;;8.00;73.53
20350;BME280;10332;50.208;18.988;2023-05-08T04:44:21;99071.72;;;8.14;72.81
20350;BME280;10332;50.208;18.988;2023-05-08T04:46:48;99069.03;;;8.15;73.24
20350;BME280;10332;50.208;18.988;2023-05-08T04:49:16;99070.63;;;8.19;73.12
20350;BME280;10332;50.208;18.988;2023-05-08T04:51:43;99078.66;;;8.34;72.61
20350;BME280;10332;50.208;18.988;2023-05-08T04:54:11;99080.28;;;8.38;72.50
20350;BME280;10332;50.208;18.988;2023-05-08T04:56:38;99078.53;;;8.16;72.88
20350;BME280;10332;50.208;18.988;2023-05-08T04:59:05;99080.38;;;8.14;72.78
20350;BME280;10332;50.208;18.988;2023-05-08T05:01:33;99082.97;;;8.14;73.04
20350;BME280;10332;50.208;18.988;2023-05-08T05:04:01;99084.78;;;8.12;72.96
20350;BME280;10332;50.208;18.988;2023-05-08T05:06:28;99088.69;;;8.22;72.55
20350;BME280;10332;50.208;18.988;2023-05-08T05:08:56;99092.47;;;8.15;73.16
20350;BME280;10332;50.208;18.988;2023-05-08T05:11:23;99099.69;;;8.29;72.72
20350;BME280;10332;50.208;18.988;2023-05-08T05:13:51;99093.34;;;8.36;71.98
20350;BME280;10332;50.208;18.988;2023-05-08T05:16:18;99105.91;;;8.25;73.21
20350;BME280;10332;50.208;18.988;2023-05-08T05:18:45;99096.09;;;8.32;72.16
20350;BME280;10332;50.208;18.988;2023-05-08T05:21:13;99103.25;;;8.26;71.97
20350;BME280;10332;50.208;18.988;2023-05-08T05:23:41;99113.66;;;8.26;71.55
20350;BME280;10332;50.208;18.988;2023-05-08T05:26:08;99116.25;;;8.26;71.71
20350;BME280;10332;50.208;18.988;2023-05-08T05:28:36;99111.78;;;8.30;71.01
20350;BME280;10332;50.208;18.988;2023-05-08T05:31:04;99113.00;;;8.62;70.71
20350;BME280;10332;50.208;18.988;2023-05-08T05:33:31;99112.16;;;8.82;69.80
20350;BME280;10332;50.208;18.988;2023-05-08T05:35:59;99120.91;;;9.00;68.98
20350;BME280;10332;50.208;18.988;2023-05-08T05:38:26;99120.59;;;9.06;68.51
20350;BME280;10332;50.208;18.988;2023-05-08T05:40:54;99126.66;;;8.88;68.43
20350;BME280;10332;50.208;18.988;2023-05-08T05:43:21;99130.44;;;8.80;68.82
20350;BME280;10332;50.208;18.988;2023-05-08T05:45:49;99126.22;;;8.78;68.46
20350;BME280;10332;50.208;18.988;2023-05-08T05:48:16;99136.03;;;8.31;70.08
20350;BME280;10332;50.208;18.988;2023-05-08T05:50:44;99132.59;;;8.71;69.58
20350;BME280;10332;50.208;18.988;2023-05-08T05:53:11;99131.09;;;8.86;68.64
20350;BME280;10332;50.208;18.988;2023-05-08T05:55:39;99137.78;;;8.91;68.64
20350;BME280;10332;50.208;18.988;2023-05-08T05:58:07;99144.78;;;9.09;68.22
20350;BME280;10332;50.208;18.988;2023-05-08T06:00:35;99142.44;;;9.22;68.01
20350;BME280;10332;50.208;18.988;2023-05-08T06:03:03;99153.78;;;9.21;68.04
20350;BME280;10332;50.208;18.988;2023-05-08T06:05:32;99151.59;;;9.12;68.14
20350;BME280;10332;50.208;18.988;2023-05-08T06:07:59;99167.41;;;8.89;68.35
20350;BME280;10332;50.208;18.988;2023-05-08T06:10:26;99161.88;;;8.76;68.49
20350;BME280;10332;50.208;18.988;2023-05-08T06:12:54;99163.31;;;8.83;68.38
20350;BME280;10332;50.208;18.988;2023-05-08T06:15:22;99163.03;;;8.89;67.81
20350;BME280;10332;50.208;18.988;2023-05-08T06:17:49;99164.19;;;9.02;67.61
20350;BME280;10332;50.208;18.988;2023-05-08T06:20:17;99164.94;;;8.86;68.40
20350;BME280;10332;50.208;18.988;2023-05-08T06:22:44;99164.56;;;9.14;68.46
20350;BME280;10332;50.208;18.988;2023-05-08T06:25:12;99172.34;;;9.53;66.96
20350;BME280;10332;50.208;18.988;2023-05-08T06:27:39;99166.25;;;9.52;66.96
20350;BME280;10332;50.208;18.988;2023-05-08T06:30:07;99183.59;;;9.53;66.47
20350;BME280;10332;50.208;18.988;2023-05-08T06:32:36;99179.22;;;9.54;66.21
20350;BME280;10332;50.208;18.988;2023-05-08T06:35:05;99178.81;;;9.44;66.60
20350;BME280;10332;50.208;18.988;2023-05-08T06:37:32;99171.75;;;9.27;67.13
20350;BME280;10332;50.208;18.988;2023-05-08T06:40:00;99174.50;;;9.62;66.22
20350;BME280;10332;50.208;18.988;2023-05-08T06:42:39;99178.69;;;9.83;65.75
20350;BME280;10332;50.208;18.988;2023-05-08T06:45:08;99175.97;;;10.04;65.29
20350;BME280;10332;50.208;18.988;2023-05-08T06:47:35;99186.16;;;9.91;65.08
20350;BME280;10332;50.208;18.988;2023-05-08T06:50:04;99183.03;;;10.02;64.42
20350;BME280;10332;50.208;18.988;2023-05-08T06:52:32;99186.53;;;9.83;65.26
20350;BME280;10332;50.208;18.988;2023-05-08T06:54:59;99190.09;;;10.36;63.77
20350;BME280;10332;50.208;18.988;2023-05-08T06:57:27;99188.44;;;10.85;62.30
20350;BME280;10332;50.208;18.988;2023-05-08T06:59:56;99188.69;;;10.98;60.70
20350;BME280;10332;50.208;18.988;2023-05-08T07:02:23;99188.06;;;11.26;59.67
20350;BME280;10332;50.208;18.988;2023-05-08T07:04:51;99193.25;;;11.43;59.64
20350;BME280;10332;50.208;18.988;2023-05-08T07:07:18;99202.06;;;11.25;59.11
20350;BME280;10332;50.208;18.988;2023-05-08T07:09:46;99201.38;;;10.71;59.96
20350;BME280;10332;50.208;18.988;2023-05-08T07:12:13;99205.75;;;10.36;61.43
20350;BME280;10332;50.208;18.988;2023-05-08T07:14:43;99215.22;;;10.19;61.37
20350;BME280;10332;50.208;18.988;2023-05-08T07:17:10;99211.66;;;10.22;62.28
20350;BME280;10332;50.208;18.988;2023-05-08T07:19:38;99214.28;;;10.91;60.07
20350;BME280;10332;50.208;18.988;2023-05-08T07:22:05;99201.69;;;10.65;60.24
20350;BME280;10332;50.208;18.988;2023-05-08T07:24:33;99211.50;;;10.77;59.59
20350;BME280;10332;50.208;18.988;2023-05-08T07:27:00;99217.81;;;10.38;60.63
20350;BME280;10332;50.208;18.988;2023-05-08T07:29:28;99210.75;;;10.75;60.39
20350;BME280;10332;50.208;18.988;2023-05-08T07:31:55;99218.50;;;10.59;60.67
20350;BME280;10332;50.208;18.988;2023-05-08T07:34:23;99217.19;;;10.68;60.24
20350;BME280;10332;50.208;18.988;2023-05-08T07:36:50;99219.59;;;10.72;59.89
20350;BME280;10332;50.208;18.988;2023-05-08T07:39:18;99222.72;;;10.96;59.23
20350;BME280;10332;50.208;18.988;2023-05-08T07:41:45;99210.56;;;10.95;59.28
20350;BME280;10332;50.208;18.988;2023-05-08T07:44:16;99216.72;;;10.94;58.03
20350;BME280;10332;50.208;18.988;2023-05-08T07:46:43;99210.91;;;10.89;57.49
20350;BME280;10332;50.208;18.988;2023-05-08T07:49:11;99221.59;;;11.18;57.58
20350;BME280;10332;50.208;18.988;2023-05-08T07:51:38;99216.19;;;11.54;56.40
20350;BME280;10332;50.208;18.988;2023-05-08T07:54:06;99215.84;;;11.44;56.63
20350;BME280;10332;50.208;18.988;2023-05-08T07:56:34;99216.69;;;10.78;57.24
20350;BME280;10332;50.208;18.988;2023-05-08T07:59:01;99216.69;;;11.12;56.52
20350;BME280;10332;50.208;18.988;2023-05-08T08:01:29;99218.66;;;10.73;57.30
20350;BME280;10332;50.208;18.988;2023-05-08T08:03:56;99223.00;;;11.41;56.71
20350;BME280;10332;50.208;18.988;2023-05-08T08:06:24;99221.22;;;12.06;55.42
20350;BME280;10332;50.208;18.988;2023-05-08T08:08:52;99224.69;;;12.66;52.89
20350;BME280;10332;50.208;18.988;2023-05-08T08:11:19;99205.50;;;13.10;51.72
20350;BME280;10332;50.208;18.988;2023-05-08T08:13:47;99227.41;;;12.50;52.20
20350;BME280;10332;50.208;18.988;2023-05-08T08:16:14;99214.81;;;12.71;51.66
20350;BME280;10332;50.208;18.988;2023-05-08T08:18:42;99218.91;;;12.31;52.93
20350;BME280;10332;50.208;18.988;2023-05-08T08:21:09;99220.00;;;12.11;53.33
20350;BME280;10332;50.208;18.988;2023-05-08T08:23:37;99215.19;;;12.19;52.91
20350;BME280;10332;50.208;18.988;2023-05-08T08:26:04;99218.41;;;12.55;52.42
20350;BME280;10332;50.208;18.988;2023-05-08T08:28:32;99226.56;;;12.50;52.53
20350;BME280;10332;50.208;18.988;2023-05-08T08:31:00;99224.75;;;12.81;51.47
20350;BME280;10332;50.208;18.988;2023-05-08T08:33:27;99225.06;;;12.90;50.49
20350;BME280;10332;50.208;18.988;2023-05-08T08:35:56;99225.84;;;12.62;50.98
20350;BME280;10332;50.208;18.988;2023-05-08T08:38:23;99235.88;;;12.84;51.11
20350;BME280;10332;50.208;18.988;2023-05-08T08:40:51;99230.59;;;13.00;50.78
20350;BME280;10332;50.208;18.988;2023-05-08T08:43:19;99229.91;;;12.82;52.05
20350;BME280;10332;50.208;18.988;2023-05-08T08:45:47;99231.47;;;12.70;51.90
20350;BME280;10332;50.208;18.988;2023-05-08T08:48:15;99226.09;;;13.02;50.90
20350;BME280;10332;50.208;18.988;2023-05-08T08:50:48;99233.28;;;13.43;50.24
20350;BME280;10332;50.208;18.988;2023-05-08T08:53:30;99228.00;;;13.14;49.43
20350;BME280;10332;50.208;18.988;2023-05-08T08:56:02;99228.94;;;13.13;49.50
20350;BME280;10332;50.208;18.988;2023-05-08T08:58:50;99235.53;;;12.90;50.52
20350;BME280;10332;50.208;18.988;2023-05-08T09:01:23;99237.66;;;13.71;49.22
20350;BME280;10332;50.208;18.988;2023-05-08T09:03:52;99240.91;;;13.88;49.07
20350;BME280;10332;50.208;18.988;2023-05-08T09:06:20;99241.78;;;14.02;48.98
20350;BME280;10332;50.208;18.988;2023-05-08T09:08:48;99240.38;;;13.55;49.27
20350;BME280;10332;50.208;18.988;2023-05-08T09:11:16;99244.97;;;13.23;50.29
20350;BME280;10332;50.208;18.988;2023-05-08T09:13:43;99243.97;;;13.10;50.06
20350;BME280;10332;50.208;18.988;2023-05-08T09:16:12;99250.56;;;14.29;48.32
20350;BME280;10332;50.208;18.988;2023-05-08T09:18:39;99249.19;;;14.51;47.29
20350;BME280;10332;50.208;18.988;2023-05-08T09:21:07;99244.34;;;15.22;47.03
20350;BME280;10332;50.208;18.988;2023-05-08T09:23:36;99229.41;;;15.98;47.29
20350;BME280;10332;50.208;18.988;2023-05-08T09:26:04;99217.06;;;17.27;42.95
20350;BME280;10332;50.208;18.988;2023-05-08T09:28:31;99230.13;;;18.07;39.62
20350;BME280;10332;50.208;18.988;2023-05-08T09:30:59;99234.63;;;16.93;41.71
20350;BME280;10332;50.208;18.988;2023-05-08T09:33:28;99225.91;;;18.80;40.00
20350;BME280;10332;50.208;18.988;2023-05-08T09:35:56;99230.72;;;22.52;32.74
20350;BME280;10332;50.208;18.988;2023-05-08T09:38:38;99229.03;;;28.70;24.56
20350;BME280;10332;50.208;18.988;2023-05-08T09:41:15;99240.16;;;33.25;20.24
20350;BME280;10332;50.208;18.988;2023-05-08T09:43:44;99244.47;;;34.42;18.59
20350;BME280;10332;50.208;18.988;2023-05-08T09:46:26;99235.78;;;28.44;23.20
20350;BME280;10332;50.208;18.988;2023-05-08T09:48:57;99230.28;;;24.29;27.08
20350;BME280;10332;50.208;18.988;2023-05-08T09:51:28;99225.00;;;23.01;28.55
20350;BME280;10332;50.208;18.988;2023-05-08T09:53:58;99221.28;;;25.44;26.10
20350;BME280;10332;50.208;18.988;2023-05-08T09:56:38;99234.03;;;23.60;28.88
20350;BME280;10332;50.208;18.988;2023-05-08T09:59:27;99229.44;;;21.09;31.25
20350;BME280;10332;50.208;18.988;2023-05-08T10:01:57;99230.41;;;18.89;34.36
20350;BME280;10332;50.208;18.988;2023-05-08T10:04:35;99224.19;;;18.15;36.12
20350;BME280;10332;50.208;18.988;2023-05-08T10:07:04;99230.06;;;18.62;36.21
20350;BME280;10332;50.208;18.988;2023-05-08T10:09:31;99226.88;;;19.00;37.13
20350;BME280;10332;50.208;18.988;2023-05-08T10:12:17;99216.09;;;19.74;36.51
20350;BME280;10332;50.208;18.988;2023-05-08T10:14:44;99216.69;;;19.26;35.78
20350;BME280;10332;50.208;18.988;2023-05-08T10:17:22;99226.50;;;18.40;35.95
20350;BME280;10332;50.208;18.988;2023-05-08T10:19:57;99225.41;;;18.11;36.77
20350;BME280;10332;50.208;18.988;2023-05-08T10:22:27;99222.94;;;17.98;37.78
20350;BME280;10332;50.208;18.988;2023-05-08T10:24:57;99213.34;;;18.29;37.52
20350;BME280;10332;50.208;18.988;2023-05-08T10:27:40;99210.94;;;17.49;38.83
20350;BME280;10332;50.208;18.988;2023-05-08T10:30:12;99223.81;;;16.85;39.68
20350;BME280;10332;50.208;18.988;2023-05-08T10:32:48;99228.78;;;15.94;41.35
20350;BME280;10332;50.208;18.988;2023-05-08T10:35:18;99226.28;;;15.80;41.75
20350;BME280;10332;50.208;18.988;2023-05-08T10:37:48;99222.84;;;15.67;41.93
20350;BME280;10332;50.208;18.988;2023-05-08T10:40:17;99222.78;;;15.30;42.80
20350;BME280;10332;50.208;18.988;2023-05-08T10:42:49;99203.53;;;15.79;43.00
20350;BME280;10332;50.208;18.988;2023-05-08T10:45:17;99213.41;;;17.06;41.10
20350;BME280;10332;50.208;18.988;2023-05-08T10:48:03;99201.09;;;17.51;38.90
20350;BME280;10332;50.208;18.988;2023-05-08T10:53:52;99201.69;;;16.99;38.80
20350;BME280;10332;50.208;18.988;2023-05-08T10:56:27;99208.06;;;17.41;38.73
20350;BME280;10332;50.208;18.988;2023-05-08T10:58:57;99198.34;;;18.19;37.42
20350;BME280;10332;50.208;18.988;2023-05-08T11:01:25;99196.81;;;18.16;36.84
20350;BME280;10332;50.208;18.988;2023-05-08T11:03:53;99201.81;;;17.20;38.12
20350;BME280;10332;50.208;18.988;2023-05-08T11:06:46;99206.72;;;17.24;38.76
20350;BME280;10332;50.208;18.988;2023-05-08T11:12:28;99203.63;;;17.08;39.08
20350;BME280;10332;50.208;18.988;2023-05-08T11:15:04;99205.28;;;17.20;39.01
20350;BME280;10332;50.208;18.988;2023-05-08T11:17:33;99207.09;;;16.38;40.79
20350;BME280;10332;50.208;18.988;2023-05-08T11:20:04;99198.31;;;15.66;43.22
20350;BME280;10332;50.208;18.988;2023-05-08T11:22:34;99198.50;;;15.76;42.06
20350;BME280;10332;50.208;18.988;2023-05-08T11:25:09;99211.69;;;15.50;41.66
20350;BME280;10332;50.208;18.988;2023-05-08T11:27:40;99213.56;;;16.10;41.24
20350;BME280;10332;50.208;18.988;2023-05-08T11:30:36;99204.88;;;16.45;40.97
20350;BME280;10332;50.208;18.988;2023-05-08T11:38:36;99191.97;;;16.64;39.76
20350;BME280;10332;50.208;18.988;2023-05-08T11:41:19;99188.09;;;16.81;40.89
20350;BME280;10332;50.208;18.988;2023-05-08T11:44:20;99188.88;;;16.70;39.60
20350;BME280;10332;50.208;18.988;2023-05-08T11:49:23;99190.53;;;17.18;39.28
20350;BME280;10332;50.208;18.988;2023-05-08T11:51:58;99204.09;;;16.43;40.05
20350;BME280;10332;50.208;18.988;2023-05-08T11:54:29;99177.84;;;16.30;39.85
20350;BME280;10332;50.208;18.988;2023-05-08T11:56:58;99182.88;;;16.33;39.19
20350;BME280;10332;50.208;18.988;2023-05-08T11:59:25;99197.31;;;16.87;39.93
20350;BME280;10332;50.208;18.988;2023-05-08T12:01:53;99188.75;;;17.29;38.81
20350;BME280;10332;50.208;18.988;2023-05-08T12:04:25;99189.94;;;17.14;37.83
20350;BME280;10332;50.208;18.988;2023-05-08T12:06:59;99183.63;;;16.70;37.92
20350;BME280;10332;50.208;18.988;2023-05-08T12:09:26;99195.31;;;17.24;38.02
20350;BME280;10332;50.208;18.988;2023-05-08T12:11:57;99181.75;;;17.06;38.17
20350;BME280;10332;50.208;18.988;2023-05-08T12:14:25;99188.88;;;17.28;38.57
20350;BME280;10332;50.208;18.988;2023-05-08T12:16:53;99184.28;;;17.41;37.42
20350;BME280;10332;50.208;18.988;2023-05-08T12:19:20;99176.81;;;17.91;38.01
20350;BME280;10332;50.208;18.988;2023-05-08T12:21:48;99184.34;;;18.07;37.18
20350;BME280;10332;50.208;18.988;2023-05-08T12:24:17;99181.25;;;17.91;36.97
20350;BME280;10332;50.208;18.988;2023-05-08T12:26:53;99184.75;;;17.91;36.78
20350;BME280;10332;50.208;18.988;2023-05-08T12:29:22;99177.22;;;17.30;37.09
20350;BME280;10332;50.208;18.988;2023-05-08T12:31:52;99186.56;;;17.57;37.25
20350;BME280;10332;50.208;18.988;2023-05-08T12:34:20;99179.50;;;17.13;38.27
20350;BME280;10332;50.208;18.988;2023-05-08T12:36:48;99176.81;;;16.79;38.82
20350;BME280;10332;50.208;18.988;2023-05-08T12:39:17;99187.53;;;16.06;40.16
20350;BME280;10332;50.208;18.988;2023-05-08T12:41:50;99184.50;;;15.99;40.69
20350;BME280;10332;50.208;18.988;2023-05-08T12:44:25;99184.25;;;15.91;40.77
20350;BME280;10332;50.208;18.988;2023-05-08T12:46:55;99195.41;;;16.18;40.32
20350;BME280;10332;50.208;18.988;2023-05-08T12:49:31;99170.34;;;16.48;39.66
20350;BME280;10332;50.208;18.988;2023-05-08T12:52:11;99178.38;;;16.46;39.38
20350;BME280;10332;50.208;18.988;2023-05-08T12:54:46;99174.03;;;16.69;38.46
20350;BME280;10332;50.208;18.988;2023-05-08T12:57:16;99173.59;;;16.87;38.47
20350;BME280;10332;50.208;18.988;2023-05-08T12:59:45;99165.09;;;16.94;37.98
20350;BME280;10332;50.208;18.988;2023-05-08T13:02:17;99163.53;;;16.92;37.82
20350;BME280;10332;50.208;18.988;2023-05-08T13:04:45;99162.31;;;16.50;38.73
20350;BME280;10332;50.208;18.988;2023-05-08T13:07:13;99163.72;;;16.78;38.22
20350;BME280;10332;50.208;18.988;2023-05-08T13:09:58;99164.25;;;16.83;38.31
20350;BME280;10332;50.208;18.988;2023-05-08T13:12:31;99158.41;;;16.66;38.39
20350;BME280;10332;50.208;18.988;2023-05-08T13:14:59;99156.81;;;16.99;38.26
20350;BME280;10332;50.208;18.988;2023-05-08T13:17:26;99161.59;;;17.16;37.65
20350;BME280;10332;50.208;18.988;2023-05-08T13:19:54;99164.72;;;17.66;36.12
20350;BME280;10332;50.208;18.988;2023-05-08T13:22:21;99152.47;;;17.65;37.38
20350;BME280;10332;50.208;18.988;2023-05-08T13:24:53;99154.06;;;17.45;37.08
20350;BME280;10332;50.208;18.988;2023-05-08T13:27:20;99173.06;;;16.70;38.43
20350;BME280;10332;50.208;18.988;2023-05-08T13:29:48;99164.72;;;16.88;38.67
20350;BME280;10332;50.208;18.988;2023-05-08T13:32:15;99159.25;;;16.67;39.23
20350;BME280;10332;50.208;18.988;2023-05-08T13:34:43;99173.00;;;16.83;39.65
20350;BME280;10332;50.208;18.988;2023-05-08T13:37:17;99158.28;;;16.57;39.12
20350;BME280;10332;50.208;18.988;2023-05-08T13:39:45;99169.31;;;16.27;38.56
20350;BME280;10332;50.208;18.988;2023-05-08T13:42:12;99162.72;;;16.21;39.13
20350;BME280;10332;50.208;18.988;2023-05-08T13:44:40;99156.03;;;16.04;39.10